Home > Products > Valid Products > TAF

000
FTUS43 KMPX 071453 AAB
TAFMSP
TAF AMD
KMSP 071453Z 0715/0818 01009G17KT P6SM SCT050
     FM072300 01006KT P6SM SKC
     FM081200 14005KT P6SM SKC=



000
FTUS43 KMPX 071343 AAA
TAFMSP
TAF AMD
KMSP 071343Z 0714/0818 01009G17KT P6SM SCT050
     FM072300 01006KT P6SM SKC
     FM081200 14005KT P6SM SKC=



000
FTUS43 KMPX 071136
TAFEAU
TAF
KEAU 071136Z 0712/0812 35008KT P6SM SCT045
     FM071400 36010G16KT P6SM BKN045
     FM072000 36007KT P6SM SCT050
     FM080000 05002KT P6SM SKC
      TEMPO 0809/0812 2SM BR FEW002=



000
FTUS43 KMPX 071136
TAFMSP
TAF
KMSP 071136Z 0712/0818 36011G17KT P6SM BKN045
     FM071700 01009KT P6SM SCT050
     FM072300 01006KT P6SM SKC
     FM081200 14005KT P6SM SKC=



000
FTUS43 KMPX 071136
TAFAXN
TAF
KAXN 071136Z 0712/0812 01007KT P6SM SKC
     FM072100 19005KT P6SM SKC=



000
FTUS43 KMPX 071136
TAFRWF
TAF
KRWF 071136Z 0712/0812 01006KT P6SM SKC
     FM072200 VRB03KT P6SM SKC=



000
FTUS43 KMPX 071136
TAFSTC
TAF
KSTC 071136Z 0712/0812 36007KT P6SM FEW045
     FM072200 VRB03KT P6SM SKC=



000
FTUS43 KMPX 071136
TAFAXN
TAF
KAXN 071136Z 0712/0812 01007KT P6SM SKC
     FM072100 19005KT P6SM SKC=



000
FTUS43 KMPX 071136
TAFRWF
TAF
KRWF 071136Z 0712/0812 01006KT P6SM SKC
     FM072200 VRB03KT P6SM SKC=



000
FTUS43 KMPX 071136
TAFMSP
TAF
KMSP 071136Z 0712/0818 36011G17KT P6SM BKN045
     FM071700 01009KT P6SM SCT050
     FM072300 01006KT P6SM SKC
     FM081200 14005KT P6SM SKC=



000
FTUS43 KMPX 071136
TAFEAU
TAF
KEAU 071136Z 0712/0812 35008KT P6SM SCT045
     FM071400 36010G16KT P6SM BKN045
     FM072000 36007KT P6SM SCT050
     FM080000 05002KT P6SM SKC
      TEMPO 0809/0812 2SM BR FEW002=



000
FTUS43 KMPX 071136
TAFSTC
TAF
KSTC 071136Z 0712/0812 36007KT P6SM FEW045
     FM072200 VRB03KT P6SM SKC=



000
FTUS43 KMPX 070851 AAA
TAFMSP
TAF AMD
KMSP 070851Z 0709/0812 33008KT P6SM SKC
     FM071500 01009KT P6SM FEW045
     FM080000 VRB03KT P6SM SKC=



000
FTUS43 KMPX 070726 AAA
TAFEAU
TAF AMD
KEAU 070726Z 0707/0806 36006KT P6SM SCT060
     FM071400 36008KT P6SM SCT050
     FM080000 VRB03KT P6SM SKC=



000
FTUS43 KMPX 070520
TAFAXN
TAF
KAXN 070520Z 0706/0806 34006KT P6SM SKC
     FM071400 36005KT 6SM FU FEW040
     FM071800 VRB04KT P6SM FEW040
     FM080000 17004KT P6SM SKC=



000
FTUS43 KMPX 070520
TAFAXN
TAF
KAXN 070520Z 0706/0806 34006KT P6SM SKC
     FM071400 36005KT 6SM FU FEW040
     FM071800 VRB04KT P6SM FEW040
     FM080000 17004KT P6SM SKC=



000
FTUS43 KMPX 070520
TAFEAU
TAF
KEAU 070520Z 0706/0806 35006KT 6SM FU SKC
     FM071400 36008KT P6SM FEW040
     FM080000 VRB03KT P6SM SKC=



000
FTUS43 KMPX 070520
TAFEAU
TAF
KEAU 070520Z 0706/0806 35006KT 6SM FU SKC
     FM071400 36008KT P6SM FEW040
     FM080000 VRB03KT P6SM SKC=



000
FTUS43 KMPX 070520
TAFMSP
TAF
KMSP 070520Z 0706/0812 35008KT P6SM SKC
     FM071500 02007KT P6SM FEW040
     FM080000 VRB03KT P6SM SKC=



000
FTUS43 KMPX 070520
TAFSTC
TAF
KSTC 070520Z 0706/0806 33007KT P6SM SKC
     FM071500 01005KT 6SM FU FEW040
     FM072000 VRB04KT P6SM FEW040
     FM080000 14003KT P6SM SKC=



000
FTUS43 KMPX 070520
TAFRWF
TAF
KRWF 070520Z 0706/0806 34007KT P6SM SKC
     FM071500 03005KT 6SM FU FEW040
     FM072100 VRB04KT P6SM FEW040
     FM080200 14003KT P6SM SKC=



000
FTUS43 KMPX 070520
TAFMSP
TAF
KMSP 070520Z 0706/0812 35008KT P6SM SKC
     FM071500 02007KT P6SM FEW040
     FM080000 VRB03KT P6SM SKC=



000
FTUS43 KMPX 070520
TAFSTC
TAF
KSTC 070520Z 0706/0806 33007KT P6SM SKC
     FM071500 01005KT 6SM FU FEW040
     FM072000 VRB04KT P6SM FEW040
     FM080000 14003KT P6SM SKC=



000
FTUS43 KMPX 070520
TAFRWF
TAF
KRWF 070520Z 0706/0806 34007KT P6SM SKC
     FM071500 03005KT 6SM FU FEW040
     FM072100 VRB04KT P6SM FEW040
     FM080200 14003KT P6SM SKC=



000
FTUS43 KMPX 070206 AAA
TAFMSP
TAF AMD
KMSP 070206Z 0702/0806 35014G20KT P6SM SCT040
     FM070600 35006KT P6SM SKC
     FM071500 02007KT 6SM FU FEW040
     FM080000 VRB03KT P6SM SKC=



000
FTUS43 KMPX 070006 CCA
TAFRWF
TAF COR
KRWF 070006Z 0700/0724 34011G18KT 6SM FU SCT040
     FM070400 34007KT P6SM SKC
     FM071500 03005KT 6SM FU FEW040
     FM072100 VRB04KT 6SM FU FEW040=



000
FTUS43 KMPX 070006 CCA
TAFRWF
TAF COR
KRWF 070006Z 0700/0724 34011G18KT 6SM FU SCT040
     FM070400 34007KT P6SM SKC
     FM071500 03005KT 6SM FU FEW040
     FM072100 VRB04KT 6SM FU FEW040=



000
FTUS43 KMPX 062336
TAFEAU
TAF
KEAU 062336Z 0700/0724 34010KT 3SM FU BKN025
     FM070300 35008KT 5SM FU SCT025 BKN100
     FM070600 35006KT 6SM FU SKC
     FM071400 36008KT 6SM FU FEW040=



000
FTUS43 KMPX 062336
TAFRWF
TAF
KRWF 062336Z 0700/0724 34011G18KT 5SM FU SCT040
     FM070400 34007KT P6SM SKC
     FM071500 03005KT 6SM FU FEW040
     FM072100 VRB04KT 6SM FU FEW040=



000
FTUS43 KMPX 062336
TAFAXN
TAF
KAXN 062336Z 0700/0724 34012G20KT P6SM FEW050
     FM070300 34006KT P6SM SKC
     FM071400 36005KT 6SM FU FEW040
     FM071800 VRB04KT 6SM FU FEW040=



000
FTUS43 KMPX 062336
TAFSTC
TAF
KSTC 062336Z 0700/0724 34011G18KT 6SM FU FEW050
     FM070300 33007KT P6SM SCT250
     FM071500 01005KT 6SM FU FEW040
     FM072000 VRB04KT 6SM FU FEW040=



000
FTUS43 KMPX 062336
TAFMSP
TAF
KMSP 062336Z 0700/0806 35010KT 4SM FU SCT040
     FM070600 35006KT 6SM FU SKC
     FM071500 02007KT 6SM FU FEW040
     FM080000 VRB03KT P6SM SKC=



000
FTUS43 KMPX 062336
TAFEAU
TAF
KEAU 062336Z 0700/0724 34010KT 3SM FU BKN025
     FM070300 35008KT 5SM FU SCT025 BKN100
     FM070600 35006KT 6SM FU SKC
     FM071400 36008KT 6SM FU FEW040=



000
FTUS43 KMPX 062336
TAFSTC
TAF
KSTC 062336Z 0700/0724 34011G18KT 6SM FU FEW050
     FM070300 33007KT P6SM SCT250
     FM071500 01005KT 6SM FU FEW040
     FM072000 VRB04KT 6SM FU FEW040=



000
FTUS43 KMPX 062336
TAFRWF
TAF
KRWF 062336Z 0700/0724 34011G18KT 5SM FU SCT040
     FM070400 34007KT P6SM SKC
     FM071500 03005KT 6SM FU FEW040
     FM072100 VRB04KT 6SM FU FEW040=



000
FTUS43 KMPX 062336
TAFAXN
TAF
KAXN 062336Z 0700/0724 34012G20KT P6SM FEW050
     FM070300 34006KT P6SM SKC
     FM071400 36005KT 6SM FU FEW040
     FM071800 VRB04KT 6SM FU FEW040=



000
FTUS43 KMPX 062336
TAFMSP
TAF
KMSP 062336Z 0700/0806 35010KT 4SM FU SCT040
     FM070600 35006KT 6SM FU SKC
     FM071500 02007KT 6SM FU FEW040
     FM080000 VRB03KT P6SM SKC=



000
FTUS43 KMPX 062208 AAA
TAFEAU
TAF AMD
KEAU 062208Z 0622/0718 34010KT 4SM HZ BKN015
     FM070400 35005KT P6SM SCT025
     FM070900 35004KT 5SM BR SKC
     FM071400 36008KT P6SM FEW040=



000
FTUS43 KMPX 062153 AAB
TAFMSP
TAF AMD
KMSP 062153Z 0622/0724 34011G20KT 2SM FU SCT015 BKN035
     FM070000 33008KT 4SM FU SCT250
     FM070800 33006KT P6SM SKC
     FM071700 36007KT P6SM FEW040=



000
FTUS43 KMPX 061924 AAA
TAFAXN
TAF AMD
KAXN 061924Z 0619/0718 34014G24KT P6SM FEW050
     FM070100 34008KT P6SM SKC
     FM071600 36005KT P6SM FEW040=



000
FTUS43 KMPX 061924 AAA
TAFAXN
TAF AMD
KAXN 061924Z 0619/0718 34014G24KT P6SM FEW050
     FM070100 34008KT P6SM SKC
     FM071600 36005KT P6SM FEW040=



000
FTUS43 KMPX 061923 AAA
TAFRWF
TAF AMD
KRWF 061923Z 0619/0718 35012G20KT 2SM HZ SCT025 BKN035
     FM062100 34011G18KT 5SM HZ SCT040
     FM070000 32007KT P6SM SKC
     FM071500 03005KT P6SM FEW040=



000
FTUS43 KMPX 061923 AAA
TAFRWF
TAF AMD
KRWF 061923Z 0619/0718 35012G20KT 2SM HZ SCT025 BKN035
     FM062100 34011G18KT 5SM HZ SCT040
     FM070000 32007KT P6SM SKC
     FM071500 03005KT P6SM FEW040=



000
FTUS43 KMPX 061920 AAA
TAFMSP
TAF AMD
KMSP 061920Z 0619/0724 34011G20KT 3SM HZ SCT015 BKN035 OVC090
     FM070000 33008KT 6SM HZ SCT250
     FM070800 33006KT P6SM SKC
     FM071700 36007KT P6SM FEW040=



000
FTUS43 KMPX 061849 AAA
TAFSTC
TAF AMD
KSTC 061849Z 0619/0718 35010G17KT 4SM HZ SCT015 OVC025
      TEMPO 0619/0621 1SM HZ
     FM062100 34012G18KT 4SM HZ SCT025 BKN100
     FM070000 32007KT P6SM SCT250
     FM071500 01005KT P6SM FEW040=



000
FTUS43 KMPX 061849 AAA
TAFSTC
TAF AMD
KSTC 061849Z 0619/0718 35010G17KT 4SM HZ SCT015 OVC025
      TEMPO 0619/0621 1SM HZ
     FM062100 34012G18KT 4SM HZ SCT025 BKN100
     FM070000 32007KT P6SM SCT250
     FM071500 01005KT P6SM FEW040=



000
FTUS43 KMPX 061720
TAFSTC
TAF
KSTC 061720Z 0618/0718 35010G17KT 4SM -RA BR SCT015 OVC040
      TEMPO 0618/0620 2SM -RA BR BKN015 OVC040
     FM062100 34012G18KT 4SM HZ SCT025 BKN100
     FM070000 32007KT P6SM SCT250
     FM071500 01005KT P6SM FEW040=



000
FTUS43 KMPX 061720
TAFMSP
TAF
KMSP 061720Z 0618/0724 34011G21KT 6SM -SHRA FEW009 BKN015 OVC040
      TEMPO 0618/0620 3SM -RA BR
     FM062000 34014G21KT 6SM HZ BKN040 BKN100
     FM070100 33008KT 6SM HZ SCT250
     FM070800 33006KT P6SM SKC
     FM071700 36007KT P6SM FEW040=



000
FTUS43 KMPX 061720
TAFSTC
TAF
KSTC 061720Z 0618/0718 35010G17KT 4SM -RA BR SCT015 OVC040
      TEMPO 0618/0620 2SM -RA BR BKN015 OVC040
     FM062100 34012G18KT 4SM HZ SCT025 BKN100
     FM070000 32007KT P6SM SCT250
     FM071500 01005KT P6SM FEW040=



000
FTUS43 KMPX 061720
TAFRWF
TAF
KRWF 061720Z 0618/0718 34012G20KT 2SM HZ SCT025 BKN050
     FM062000 34011G18KT 5SM HZ SCT035 BKN100
     FM070000 32007KT P6SM SKC
     FM071500 03005KT P6SM FEW040=



000
FTUS43 KMPX 061720
TAFAXN
TAF
KAXN 061720Z 0618/0718 35014G24KT 2SM HZ BKN020 BKN120
     FM061900 34014G24KT 4SM HZ SCT030 BKN150
     FM062100 34013G21KT P6SM SCT035 BKN150
     FM070100 34008KT P6SM SKC
     FM071600 36005KT P6SM FEW040=



000
FTUS43 KMPX 061720
TAFEAU
TAF
KEAU 061720Z 0618/0718 21006KT 6SM -SHRA SCT012 OVC025
      TEMPO 0618/0621 2SM SHRA BR BKN010 OVC040
     FM062100 33010KT 5SM -SHRA BR SCT009 BKN015 OVC030
     FM062300 34009KT P6SM SCT025 OVC100
     FM070400 35005KT P6SM SCT025
     FM070900 35004KT 5SM BR SKC
     FM071400 36008KT P6SM FEW040=



000
FTUS43 KMPX 061720
TAFRWF
TAF
KRWF 061720Z 0618/0718 34012G20KT 2SM HZ SCT025 BKN050
     FM062000 34011G18KT 5SM HZ SCT035 BKN100
     FM070000 32007KT P6SM SKC
     FM071500 03005KT P6SM FEW040=



000
FTUS43 KMPX 061720
TAFEAU
TAF
KEAU 061720Z 0618/0718 21006KT 6SM -SHRA SCT012 OVC025
      TEMPO 0618/0621 2SM SHRA BR BKN010 OVC040
     FM062100 33010KT 5SM -SHRA BR SCT009 BKN015 OVC030
     FM062300 34009KT P6SM SCT025 OVC100
     FM070400 35005KT P6SM SCT025
     FM070900 35004KT 5SM BR SKC
     FM071400 36008KT P6SM FEW040=



000
FTUS43 KMPX 061720
TAFMSP
TAF
KMSP 061720Z 0618/0724 34011G21KT 6SM -SHRA FEW009 BKN015 OVC040
      TEMPO 0618/0620 3SM -RA BR
     FM062000 34014G21KT 6SM HZ BKN040 BKN100
     FM070100 33008KT 6SM HZ SCT250
     FM070800 33006KT P6SM SKC
     FM071700 36007KT P6SM FEW040=



000
FTUS43 KMPX 061720
TAFAXN
TAF
KAXN 061720Z 0618/0718 35014G24KT 2SM HZ BKN020 BKN120
     FM061900 34014G24KT 4SM HZ SCT030 BKN150
     FM062100 34013G21KT P6SM SCT035 BKN150
     FM070100 34008KT P6SM SKC
     FM071600 36005KT P6SM FEW040=



000
FTUS43 KMPX 061452 AAA
TAFEAU
TAF AMD
KEAU 061452Z 0615/0712 12010KT 6SM BR BKN006 OVC025
      TEMPO 0615/0618 3SM -SHRA BR OVC006
     FM061800 29012G18KT 6SM -SHRA BR VCTS SCT008 OVC015CB
     FM062300 35008KT P6SM SCT025 BKN080
     FM070400 35005KT P6SM SKC=



000
FTUS43 KMPX 061452 AAA
TAFEAU
TAF AMD
KEAU 061452Z 0615/0712 12010KT 6SM BR BKN006 OVC025
      TEMPO 0615/0618 3SM -SHRA BR OVC006
     FM061800 29012G18KT 6SM -SHRA BR VCTS SCT008 OVC015CB
     FM062300 35008KT P6SM SCT025 BKN080
     FM070400 35005KT P6SM SKC=



000
FTUS43 KMPX 061449 AAA
TAFMSP
TAF AMD
KMSP 061449Z 0615/0718 27008KT P6SM VCSH OVC008
     FM061600 34015G22KT 6SM -SHRA SCT007 OVC015
     FM062000 34014G21KT P6SM SCT030 BKN100
     FM070300 33008KT P6SM SKC=



000
FTUS43 KMPX 061415 AAA
TAFRWF
TAF AMD
KRWF 061415Z 0614/0712 36008KT 5SM -SHRA BR BKN008 OVC015
     FM061600 34010G17KT P6SM -SHRA BKN020 OVC040
     FM061800 34012G20KT P6SM SCT025 BKN070
     FM062000 34011G18KT P6SM BKN100
     FM070000 32007KT P6SM SKC=



000
FTUS43 KMPX 061414 AAA
TAFSTC
TAF AMD
KSTC 061414Z 0614/0712 36010KT 5SM HZ SCT012 OVC030
      TEMPO 0614/0617 2SM -SHRA BR BKN012 OVC030
     FM061700 34013G20KT P6SM VCSH OVC035
     FM062100 32012G18KT P6SM BKN100
     FM070000 32007KT P6SM SKC=



000
FTUS43 KMPX 061412 AAA
TAFAXN
TAF AMD
KAXN 061412Z 0614/0712 36012G18KT 4SM HZ SCT012 OVC070
      TEMPO 0614/0616 2SM BR BKN012
     FM061600 35015G22KT 4SM HZ SCT035 BKN100
     FM070000 33007KT P6SM SKC=



000
FTUS43 KMPX 061139
TAFRWF
TAF
KRWF 061139Z 0612/0712 33008KT 4SM -SHRA BR BKN006 OVC015
     FM061500 34010G17KT P6SM -SHRA BKN020 OVC040
     FM061800 34012G20KT P6SM SCT025 BKN070
     FM062000 34011G18KT P6SM BKN100
     FM070000 32007KT P6SM SKC=



000
FTUS43 KMPX 061139
TAFSTC
TAF
KSTC 061139Z 0612/0712 01007KT 5SM -SHRA BKN007 OVC014
      TEMPO 0613/0615 2SM SHRA BKN014 OVC028
     FM061500 35012G20KT P6SM -SHRA BKN028 OVC080
     FM061700 34013G20KT P6SM VCSH OVC035
     FM062100 32012G18KT P6SM BKN100
     FM070000 32007KT P6SM SKC=



000
FTUS43 KMPX 061139
TAFAXN
TAF
KAXN 061139Z 0612/0712 36013KT P6SM SCT015 OVC035
      TEMPO 0612/0614 BKN015
     FM061500 35015G22KT P6SM SCT035 BKN100
     FM070000 33007KT P6SM SKC=



000
FTUS43 KMPX 061139
TAFEAU
TAF
KEAU 061139Z 0612/0712 11010KT 3SM SHRA SCT008 OVC016
      TEMPO 0612/0614 VRB15G25KT 1SM TSRA BKN008CB
     FM061400 19010KT 4SM SHRA VCTS BKN006 OVC010CB
     FM061800 29012G18KT 6SM -SHRA BR VCTS SCT008 OVC015CB
     FM062300 35008KT P6SM SCT025 BKN080
     FM070400 35005KT P6SM SKC=



000
FTUS43 KMPX 061139
TAFMSP
TAF
KMSP 061139Z 0612/0718 10009KT 3SM SHRA BR VCTS SCT009 OVC030CB
     FM061300 05007KT 4SM SHRA VCTS BKN009 OVC012CB
     FM061500 36015G22KT P6SM -SHRA SCT007 OVC015
     FM062000 34014G21KT P6SM SCT030 BKN100
     FM070300 33008KT P6SM SKC=



000
FTUS43 KMPX 061139
TAFAXN
TAF
KAXN 061139Z 0612/0712 36013KT P6SM SCT015 OVC035
      TEMPO 0612/0614 BKN015
     FM061500 35015G22KT P6SM SCT035 BKN100
     FM070000 33007KT P6SM SKC=



000
FTUS43 KMPX 061139
TAFEAU
TAF
KEAU 061139Z 0612/0712 11010KT 3SM SHRA SCT008 OVC016
      TEMPO 0612/0614 VRB15G25KT 1SM TSRA BKN008CB
     FM061400 19010KT 4SM SHRA VCTS BKN006 OVC010CB
     FM061800 29012G18KT 6SM -SHRA BR VCTS SCT008 OVC015CB
     FM062300 35008KT P6SM SCT025 BKN080
     FM070400 35005KT P6SM SKC=



000
FTUS43 KMPX 061139
TAFMSP
TAF
KMSP 061139Z 0612/0718 10009KT 3SM SHRA BR VCTS SCT009 OVC030CB
     FM061300 05007KT 4SM SHRA VCTS BKN009 OVC012CB
     FM061500 36015G22KT P6SM -SHRA SCT007 OVC015
     FM062000 34014G21KT P6SM SCT030 BKN100
     FM070300 33008KT P6SM SKC=



000
FTUS43 KMPX 061139
TAFSTC
TAF
KSTC 061139Z 0612/0712 01007KT 5SM -SHRA BKN007 OVC014
      TEMPO 0613/0615 2SM SHRA BKN014 OVC028
     FM061500 35012G20KT P6SM -SHRA BKN028 OVC080
     FM061700 34013G20KT P6SM VCSH OVC035
     FM062100 32012G18KT P6SM BKN100
     FM070000 32007KT P6SM SKC=



000
FTUS43 KMPX 061139
TAFRWF
TAF
KRWF 061139Z 0612/0712 33008KT 4SM -SHRA BR BKN006 OVC015
     FM061500 34010G17KT P6SM -SHRA BKN020 OVC040
     FM061800 34012G20KT P6SM SCT025 BKN070
     FM062000 34011G18KT P6SM BKN100
     FM070000 32007KT P6SM SKC=



000
FTUS43 KMPX 060859 AAA
TAFMSP
TAF AMD
KMSP 060859Z 0609/0712 02012KT 3SM TSRA BR SCT015 OVC040CB
      TEMPO 0609/0611 1 1/2SM +SHRA BKN015
     FM061100 05007KT 4SM SHRA VCTS SCT008 OVC012CB
     FM061700 34013G22KT 6SM SHRA BR SCT015 OVC025
     FM062300 34013G20KT P6SM BKN100
     FM070300 33008KT P6SM SKC=



000
FTUS43 KMPX 060859 AAA
TAFMSP
TAF AMD
KMSP 060859Z 0609/0712 02012KT 3SM TSRA BR SCT015 OVC040CB
      TEMPO 0609/0611 1 1/2SM +SHRA BKN015
     FM061100 05007KT 4SM SHRA VCTS SCT008 OVC012CB
     FM061700 34013G22KT 6SM SHRA BR SCT015 OVC025
     FM062300 34013G20KT P6SM BKN100
     FM070300 33008KT P6SM SKC=



000
FTUS43 KMPX 060526
TAFSTC
TAF
KSTC 060526Z 0606/0706 22007KT 4SM TSRA BR SCT008 BKN025CB OVC060
      TEMPO 0606/0607 1SM +TSRA BR OVC008CB
     FM061000 01007KT 6SM SHRA BR VCTS OVC015CB
     FM061700 34013G20KT P6SM -SHRA SCT015 OVC040
     FM062100 01012G18KT P6SM BKN100
     FM070000 32007KT P6SM SKC=



000
FTUS43 KMPX 060526
TAFAXN
TAF
KAXN 060526Z 0606/0706 35008KT 6SM -SHRA BR SCT025 OVC060
     FM060800 02008KT P6SM OVC080
     FM061200 01012KT 5SM -SHRA BR SCT012 OVC040
     FM061700 35015G22KT P6SM BKN100
     FM070000 33007KT P6SM SKC=



000
FTUS43 KMPX 060526
TAFMSP
TAF
KMSP 060526Z 0606/0712 19010KT 5SM TSRA BR BKN030CB OVC050
      TEMPO 0606/0610 3/4SM +TSRA BR BKN008CB OVC015
     FM061000 05007KT 4SM TSRA BR SCT008 OVC012CB
     FM061700 34013G22KT 6SM SHRA BR VCTS SCT015 OVC025CB
     FM062300 34013G20KT P6SM BKN100
     FM070300 33008KT P6SM SKC=



000
FTUS43 KMPX 060526
TAFEAU
TAF
KEAU 060526Z 0606/0706 18007KT P6SM VCTS BKN050CB OVC150
     FM060800 18005KT 5SM TSRA BR SCT008 OVC020CB
      TEMPO 0608/0612 1SM +TSRA BR OVC008CB
     FM061800 29012G20KT 4SM TSRA BR SCT008 OVC015CB
     FM070000 35007KT P6SM BKN100
     FM070400 35005KT P6SM SKC=



000
FTUS43 KMPX 060526
TAFRWF
TAF
KRWF 060526Z 0606/0706 25008KT 5SM TSRA BR BKN030 OVC050CB
      TEMPO 0606/0609 3/4SM +TSRA BR OVC008CB
     FM061000 02008KT 4SM TSRA BR OVC015CB
     FM061600 34012G20KT 6SM -SHRA SCT015 OVC040
     FM062100 34011G18KT P6SM BKN100
     FM070000 32007KT P6SM SKC=



000
FTUS43 KMPX 060526
TAFAXN
TAF
KAXN 060526Z 0606/0706 35008KT 6SM -SHRA BR SCT025 OVC060
     FM060800 02008KT P6SM OVC080
     FM061200 01012KT 5SM -SHRA BR SCT012 OVC040
     FM061700 35015G22KT P6SM BKN100
     FM070000 33007KT P6SM SKC=



000
FTUS43 KMPX 060526
TAFRWF
TAF
KRWF 060526Z 0606/0706 25008KT 5SM TSRA BR BKN030 OVC050CB
      TEMPO 0606/0609 3/4SM +TSRA BR OVC008CB
     FM061000 02008KT 4SM TSRA BR OVC015CB
     FM061600 34012G20KT 6SM -SHRA SCT015 OVC040
     FM062100 34011G18KT P6SM BKN100
     FM070000 32007KT P6SM SKC=



000
FTUS43 KMPX 060526
TAFEAU
TAF
KEAU 060526Z 0606/0706 18007KT P6SM VCTS BKN050CB OVC150
     FM060800 18005KT 5SM TSRA BR SCT008 OVC020CB
      TEMPO 0608/0612 1SM +TSRA BR OVC008CB
     FM061800 29012G20KT 4SM TSRA BR SCT008 OVC015CB
     FM070000 35007KT P6SM BKN100
     FM070400 35005KT P6SM SKC=



000
FTUS43 KMPX 060526
TAFMSP
TAF
KMSP 060526Z 0606/0712 19010KT 5SM TSRA BR BKN030CB OVC050
      TEMPO 0606/0610 3/4SM +TSRA BR BKN008CB OVC015
     FM061000 05007KT 4SM TSRA BR SCT008 OVC012CB
     FM061700 34013G22KT 6SM SHRA BR VCTS SCT015 OVC025CB
     FM062300 34013G20KT P6SM BKN100
     FM070300 33008KT P6SM SKC=



000
FTUS43 KMPX 060526
TAFSTC
TAF
KSTC 060526Z 0606/0706 22007KT 4SM TSRA BR SCT008 BKN025CB OVC060
      TEMPO 0606/0607 1SM +TSRA BR OVC008CB
     FM061000 01007KT 6SM SHRA BR VCTS OVC015CB
     FM061700 34013G20KT P6SM -SHRA SCT015 OVC040
     FM062100 01012G18KT P6SM BKN100
     FM070000 32007KT P6SM SKC=



000
FTUS43 KMPX 060414 AAB
TAFSTC
TAF AMD
KSTC 060414Z 0604/0624 18010KT 4SM -TSRA BR BKN035CB OVC060
      TEMPO 0604/0607 3/4SM +TSRA BR OVC008CB
     FM060900 03008KT 2SM SHRA BR BKN006 OVC012
     FM061600 03012KT 5SM -SHRA BR SCT006 OVC020
     FM062000 01012G18KT P6SM SCT012 BKN035=



000
FTUS43 KMPX 060311 AAA
TAFMSP
TAF AMD
KMSP 060311Z 0603/0706 16012G17KT P6SM SCT050 BKN150
     FM060600 15012KT 5SM -SHRA OVC045
      TEMPO 0607/0610 2SM TSRA BKN015CB OVC035
     FM061200 15008KT 3SM SHRA BR VCTS BKN012CB OVC030
     FM061600 17008KT 6SM -SHRA SCT010 OVC018
     FM062100 33013G20KT P6SM SCT025 BKN040
     FM070100 35008KT P6SM SCT050=



000
FTUS43 KMPX 060219 AAA
TAFSTC
TAF AMD
KSTC 060219Z 0602/0624 17008KT P6SM SCT050 BKN150
     FM060400 14008KT 5SM SHRA BR BKN035 OVC060
      TEMPO 0604/0608 2SM +TSRA BR OVC025CB
     FM060900 09008KT 2SM SHRA BR BKN006 OVC012
     FM061600 03012KT 5SM -SHRA BR SCT006 OVC020
     FM062000 01012G18KT P6SM SCT012 BKN035=



000
FTUS43 KMPX 060219 AAA
TAFSTC
TAF AMD
KSTC 060219Z 0602/0624 17008KT P6SM SCT050 BKN150
     FM060400 14008KT 5SM SHRA BR BKN035 OVC060
      TEMPO 0604/0608 2SM +TSRA BR OVC025CB
     FM060900 09008KT 2SM SHRA BR BKN006 OVC012
     FM061600 03012KT 5SM -SHRA BR SCT006 OVC020
     FM062000 01012G18KT P6SM SCT012 BKN035=



000
FTUS43 KMPX 060117 AAB
TAFAXN
TAF AMD
KAXN 060117Z 0601/0624 20008KT P6SM VCTS SCT035CB OVC060
      TEMPO 0601/0604 1SM +TSRA BR BKN008 OVC025CB
     FM060700 35010KT 2SM SHRA BR BKN006 OVC012
     FM061400 01012KT 5SM -SHRA BR SCT006 OVC020
     FM061800 36012G20KT P6SM SCT012 BKN035=



000
FTUS43 KMPX 060117 AAB
TAFAXN
TAF AMD
KAXN 060117Z 0601/0624 20008KT P6SM VCTS SCT035CB OVC060
      TEMPO 0601/0604 1SM +TSRA BR BKN008 OVC025CB
     FM060700 35010KT 2SM SHRA BR BKN006 OVC012
     FM061400 01012KT 5SM -SHRA BR SCT006 OVC020
     FM061800 36012G20KT P6SM SCT012 BKN035=



000
FTUS43 KMPX 060009 AAA
TAFAXN
TAF AMD
KAXN 060009Z 0600/0624 16011G18KT P6SM SCT050 BKN150
     FM060100 14008KT 6SM -SHRA BR VCTS SCT035 OVC060CB
      TEMPO 0601/0605 2SM TSRA BR BKN012 OVC025CB
     FM060700 03010KT 2SM SHRA BR BKN006 OVC012
     FM061400 01012KT 5SM -SHRA BR SCT006 OVC020
     FM061800 36012G20KT P6SM SCT012 BKN035=



000
FTUS43 KMPX 052340
TAFSTC
TAF
KSTC 052340Z 0600/0624 16012G19KT P6SM SCT050 BKN150
     FM060300 14008KT 5SM SHRA BR BKN035 OVC060
      TEMPO 0604/0608 3SM TSRA OVC025CB
     FM060900 09008KT 2SM SHRA BR BKN006 OVC012
     FM061600 03012KT 5SM -SHRA BR SCT006 OVC020
     FM062000 01012G18KT P6SM SCT012 BKN035=



000
FTUS43 KMPX 052340
TAFAXN
TAF
KAXN 052340Z 0600/0624 16011G18KT P6SM SCT050 BKN150
     FM060300 14008KT 5SM SHRA BR BKN035 OVC060
      TEMPO 0603/0607 3SM TSRA OVC025CB
     FM060800 03010KT 2SM SHRA BR BKN006 OVC012
     FM061400 01012KT 5SM -SHRA BR SCT006 OVC020
     FM061800 36012G20KT P6SM SCT012 BKN035=



000
FTUS43 KMPX 052340
TAFRWF
TAF
KRWF 052340Z 0600/0624 17013G20KT P6SM BKN040 BKN150
     FM060200 16012KT P6SM SCT050 BKN150
     FM060500 15012KT 5SM -SHRA OVC040
      TEMPO 0606/0610 2SM TSRA BKN012CB OVC025
     FM061000 15008KT 3SM SHRA BR VCTS BKN012CB OVC020
     FM061600 17008KT 6SM -SHRA SCT010 OVC020
     FM061900 33013G20KT P6SM SCT025 BKN040=



000
FTUS43 KMPX 052340
TAFEAU
TAF
KEAU 052340Z 0600/0624 18013G21KT P6SM BKN045 BKN150
     FM060300 16012KT P6SM SCT050 BKN150
     FM060800 15012KT 5SM -SHRA OVC045
      TEMPO 0609/0613 2SM TSRA BKN015CB OVC035
     FM061300 15008KT 3SM SHRA BR VCTS BKN012CB OVC025
     FM061600 17008KT 5SM SHRA SCT010 OVC018
     FM062100 35012G20KT P6SM SCT020 BKN035=



000
FTUS43 KMPX 052340
TAFMSP
TAF
KMSP 052340Z 0600/0706 17015G21KT P6SM BKN040 BKN150
     FM060300 16012KT P6SM SCT050 BKN150
     FM060600 15012KT 5SM -SHRA OVC045
      TEMPO 0607/0610 2SM TSRA BKN015CB OVC035
     FM061200 15008KT 3SM SHRA BR VCTS BKN012CB OVC030
     FM061600 17008KT 6SM -SHRA SCT010 OVC018
     FM062100 33013G20KT P6SM SCT025 BKN040
     FM070100 35008KT P6SM SCT050=



000
FTUS43 KMPX 052105 AAA
TAFAXN
TAF AMD
KAXN 052105Z 0521/0618 18014KT P6SM SCT045 BKN250
     FM052300 17008KT P6SM VCTS BKN045CB OVC090
      TEMPO 0600/0603 29030G45KT 3/4SM +TSRA OVC015CB
     FM060400 14008KT 4SM SHRA BR VCTS BKN025CB OVC050
     FM060800 05010KT 2SM SHRA BR BKN006 OVC012
     FM061200 01012KT 6SM -SHRA BR SCT006 OVC025
     FM061500 36012G20KT P6SM SCT012 BKN030=



000
FTUS43 KMPX 052105 AAA
TAFAXN
TAF AMD
KAXN 052105Z 0521/0618 18014KT P6SM SCT045 BKN250
     FM052300 17008KT P6SM VCTS BKN045CB OVC090
      TEMPO 0600/0603 29030G45KT 3/4SM +TSRA OVC015CB
     FM060400 14008KT 4SM SHRA BR VCTS BKN025CB OVC050
     FM060800 05010KT 2SM SHRA BR BKN006 OVC012
     FM061200 01012KT 6SM -SHRA BR SCT006 OVC025
     FM061500 36012G20KT P6SM SCT012 BKN030=



000
FTUS43 KMPX 052103 AAA
TAFRWF
TAF AMD
KRWF 052103Z 0521/0618 18017KT P6SM FEW060
     FM052300 15014KT P6SM VCSH SCT045 BKN150
     FM060400 14010KT 5SM -TSRA OVC045CB
      TEMPO 0604/0607 27030G45KT 3/4SM +TSRA OVC020CB
     FM060800 14010KT 2SM SHRA BR VCTS BKN020CB OVC060
     FM061400 34010KT 4SM -SHRA BR BKN009 OVC025=



000
FTUS43 KMPX 052047 AAA
TAFMSP
TAF AMD
KMSP 052047Z 0521/0624 17015G21KT P6SM FEW060 SCT150
     FM060200 16012G18KT P6SM SCT050 OVC120
     FM060600 15012KT 5SM -SHRA OVC045
      TEMPO 0606/0610 2SM TSRA BKN015CB OVC035
     FM061200 16008KT 4SM SHRA BR VCTS BKN015CB OVC030
     FM061400 31011KT 6SM -SHRA SCT015 OVC030
     FM061800 33013G20KT P6SM SCT025 BKN040=



000
FTUS43 KMPX 051731
TAFRWF
TAF
KRWF 051731Z 0518/0618 18017G26KT P6SM FEW060 BKN250
     FM060100 15014KT P6SM VCSH SCT045 BKN150
     FM060400 14010KT 5SM -TSRA OVC045CB
      TEMPO 0604/0607 27030G45KT 3/4SM +TSRA OVC020CB
     FM060800 14010KT 2SM SHRA BR VCTS BKN020CB OVC060
     FM061400 34010KT 4SM -SHRA BR BKN009 OVC025=



000
FTUS43 KMPX 051731
TAFSTC
TAF
KSTC 051731Z 0518/0618 17013G21KT P6SM VCSH SCT060 BKN250
     FM060000 16009KT P6SM VCSH SCT045 BKN100
      TEMPO 0602/0605 26025G40KT 1/2SM TSRA OVC025CB
     FM060500 16007KT 5SM SHRA BR BKN025 OVC050
      TEMPO 0605/0608 1SM +TSRA BKN008 OVC025CB
     FM060900 14007KT 3SM SHRA BR SCT008 OVC015
     FM061400 36010KT P6SM -SHRA SCT012 OVC030=



000
FTUS43 KMPX 051731
TAFEAU
TAF
KEAU 051731Z 0518/0618 18013G21KT P6SM SCT050 BKN250
     FM060100 17009KT P6SM SCT050 BKN150
     FM060700 17008KT 6SM -SHRA BKN050 OVC120 PROB30 0608/0612 4SM
      TSRA OVC040CB
     FM061200 18009KT 4SM -SHRA BR SCT012 OVC025=



000
FTUS43 KMPX 051731
TAFAXN
TAF
KAXN 051731Z 0518/0618 18014G22KT P6SM SCT045 BKN250
     FM052300 17008KT P6SM VCTS BKN045CB OVC090
      TEMPO 0600/0603 29030G45KT 3/4SM +TSRA OVC015CB
     FM060400 14008KT 4SM SHRA BR VCTS BKN025CB OVC050
     FM060800 05010KT 2SM SHRA BR BKN006 OVC012
     FM061200 01012KT 6SM -SHRA BR SCT006 OVC025
     FM061500 36012G20KT P6SM SCT012 BKN030=



000
FTUS43 KMPX 051731
TAFMSP
TAF
KMSP 051731Z 0518/0624 17015G23KT P6SM SCT060 BKN250
     FM060200 16012G18KT P6SM SCT050 OVC120
     FM060600 15012KT 5SM -SHRA OVC045
      TEMPO 0606/0610 2SM TSRA BKN015CB OVC035
     FM061200 16008KT 4SM SHRA BR VCTS BKN015CB OVC030
     FM061400 31011KT 6SM -SHRA SCT015 OVC030
     FM061800 33013G20KT P6SM SCT025 BKN040=



000
FTUS43 KMPX 051731
TAFMSP
TAF
KMSP 051731Z 0518/0624 17015G23KT P6SM SCT060 BKN250
     FM060200 16012G18KT P6SM SCT050 OVC120
     FM060600 15012KT 5SM -SHRA OVC045
      TEMPO 0606/0610 2SM TSRA BKN015CB OVC035
     FM061200 16008KT 4SM SHRA BR VCTS BKN015CB OVC030
     FM061400 31011KT 6SM -SHRA SCT015 OVC030
     FM061800 33013G20KT P6SM SCT025 BKN040=



000
FTUS43 KMPX 051731
TAFSTC
TAF
KSTC 051731Z 0518/0618 17013G21KT P6SM VCSH SCT060 BKN250
     FM060000 16009KT P6SM VCSH SCT045 BKN100
      TEMPO 0602/0605 26025G40KT 1/2SM TSRA OVC025CB
     FM060500 16007KT 5SM SHRA BR BKN025 OVC050
      TEMPO 0605/0608 1SM +TSRA BKN008 OVC025CB
     FM060900 14007KT 3SM SHRA BR SCT008 OVC015
     FM061400 36010KT P6SM -SHRA SCT012 OVC030=



000
FTUS43 KMPX 051731
TAFAXN
TAF
KAXN 051731Z 0518/0618 18014G22KT P6SM SCT045 BKN250
     FM052300 17008KT P6SM VCTS BKN045CB OVC090
      TEMPO 0600/0603 29030G45KT 3/4SM +TSRA OVC015CB
     FM060400 14008KT 4SM SHRA BR VCTS BKN025CB OVC050
     FM060800 05010KT 2SM SHRA BR BKN006 OVC012
     FM061200 01012KT 6SM -SHRA BR SCT006 OVC025
     FM061500 36012G20KT P6SM SCT012 BKN030=



000
FTUS43 KMPX 051731
TAFEAU
TAF
KEAU 051731Z 0518/0618 18013G21KT P6SM SCT050 BKN250
     FM060100 17009KT P6SM SCT050 BKN150
     FM060700 17008KT 6SM -SHRA BKN050 OVC120 PROB30 0608/0612 4SM
      TSRA OVC040CB
     FM061200 18009KT 4SM -SHRA BR SCT012 OVC025=



000
FTUS43 KMPX 051731
TAFRWF
TAF
KRWF 051731Z 0518/0618 18017G26KT P6SM FEW060 BKN250
     FM060100 15014KT P6SM VCSH SCT045 BKN150
     FM060400 14010KT 5SM -TSRA OVC045CB
      TEMPO 0604/0607 27030G45KT 3/4SM +TSRA OVC020CB
     FM060800 14010KT 2SM SHRA BR VCTS BKN020CB OVC060
     FM061400 34010KT 4SM -SHRA BR BKN009 OVC025=



000
FTUS43 KMPX 051448 AAA
TAFMSP
TAF AMD
KMSP 051448Z 0515/0618 17011G17KT P6SM BKN250
     FM051800 17014G22KT P6SM SCT050 BKN250
     FM052000 17015G23KT P6SM VCSH SCT050 BKN150
     FM060100 16012KT P6SM BKN050 OVC120
     FM060600 15012KT 5SM -SHRA OVC045
      TEMPO 0606/0610 2SM TSRA BKN020CB
     FM061500 29011KT 6SM -SHRA SCT020 OVC035=



000
FTUS43 KMPX 051448 AAA
TAFMSP
TAF AMD
KMSP 051448Z 0515/0618 17011G17KT P6SM BKN250
     FM051800 17014G22KT P6SM SCT050 BKN250
     FM052000 17015G23KT P6SM VCSH SCT050 BKN150
     FM060100 16012KT P6SM BKN050 OVC120
     FM060600 15012KT 5SM -SHRA OVC045
      TEMPO 0606/0610 2SM TSRA BKN020CB
     FM061500 29011KT 6SM -SHRA SCT020 OVC035=



000
FTUS43 KMPX 051434 AAA
TAFRWF
TAF AMD
KRWF 051434Z 0515/0612 17013G21KT P6SM FEW100 BKN250
     FM051800 17017G26KT P6SM FEW060 SCT100 BKN250
     FM060100 15014KT P6SM VCSH SCT045 BKN100
     FM060400 15010KT 5SM -SHRA OVC045
      TEMPO 0604/0607 VRB30G45KT 1SM +TSRA OVC020CB
     FM060800 16014G21KT 4SM SHRA BR VCTS BKN020CB OVC060=



000
FTUS43 KMPX 051434 AAA
TAFRWF
TAF AMD
KRWF 051434Z 0515/0612 17013G21KT P6SM FEW100 BKN250
     FM051800 17017G26KT P6SM FEW060 SCT100 BKN250
     FM060100 15014KT P6SM VCSH SCT045 BKN100
     FM060400 15010KT 5SM -SHRA OVC045
      TEMPO 0604/0607 VRB30G45KT 1SM +TSRA OVC020CB
     FM060800 16014G21KT 4SM SHRA BR VCTS BKN020CB OVC060=



000
FTUS43 KMPX 051432 AAB
TAFAXN
TAF AMD
KAXN 051432Z 0515/0612 17011KT P6SM SCT250
     FM051700 18014G22KT P6SM SCT045 BKN250
     FM060000 17008KT P6SM VCSH BKN045 OVC090
      TEMPO 0600/0603 VRB30G45KT 3/4SM +TSRA OVC015CB
     FM060400 14008KT 4SM SHRA BR VCTS BKN025CB OVC050
     FM060800 05010KT 2SM SHRA BR BKN006 OVC012=



000
FTUS43 KMPX 051236 AAA
TAFSTC
TAF AMD
KSTC 051236Z 0513/0612 16009KT P6SM SCT080 BKN250
     FM051700 18013G21KT P6SM VCSH SCT060 BKN250
     FM060000 16009KT P6SM VCSH SCT045 BKN100
      TEMPO 0602/0605 VRB25G40KT 1 1/2SM TSRA OVC025CB
     FM060600 14008KT 5SM SHRA BR VCTS BKN025CB OVC050
     FM060900 14007KT 3SM SHRA BR SCT008 OVC015=



000
FTUS43 KMPX 051236 AAA
TAFSTC
TAF AMD
KSTC 051236Z 0513/0612 16009KT P6SM SCT080 BKN250
     FM051700 18013G21KT P6SM VCSH SCT060 BKN250
     FM060000 16009KT P6SM VCSH SCT045 BKN100
      TEMPO 0602/0605 VRB25G40KT 1 1/2SM TSRA OVC025CB
     FM060600 14008KT 5SM SHRA BR VCTS BKN025CB OVC050
     FM060900 14007KT 3SM SHRA BR SCT008 OVC015=



000
FTUS43 KMPX 051235 AAA
TAFAXN
TAF AMD
KAXN 051235Z 0513/0612 16011KT P6SM VCSH FEW045 SCT080 BKN250
     FM051700 18014G22KT P6SM SCT045 BKN250
     FM060000 17008KT P6SM VCSH BKN045 OVC090
      TEMPO 0600/0603 VRB30G45KT 3/4SM +TSRA OVC015CB
     FM060400 14008KT 4SM SHRA BR VCTS BKN025CB OVC050
     FM060800 05010KT 2SM SHRA BR BKN006 OVC012=



000
FTUS43 KMPX 051140
TAFMSP
TAF
KMSP 051140Z 0512/0618 16007KT P6SM SCT250
     FM051600 17012G18KT P6SM BKN250
     FM052000 17015G23KT P6SM VCSH SCT050 BKN150
     FM060100 16012KT P6SM BKN050 OVC120
     FM060600 15012KT 5SM -SHRA OVC045
      TEMPO 0606/0610 2SM TSRA BKN020CB
     FM061500 29011KT 6SM -SHRA SCT020 OVC035=



000
FTUS43 KMPX 051140
TAFSTC
TAF
KSTC 051140Z 0512/0612 16007KT P6SM SCT080 BKN250
      TEMPO 0512/0514 4SM BR
     FM051700 18013G21KT P6SM VCSH SCT060 BKN250
     FM060000 16009KT P6SM VCSH SCT045 BKN100
      TEMPO 0602/0605 VRB25G40KT 1 1/2SM TSRA OVC025CB
     FM060600 14008KT 5SM SHRA BR VCTS BKN025CB OVC050
     FM060900 14007KT 3SM SHRA BR SCT008 OVC015=



000
FTUS43 KMPX 051140
TAFAXN
TAF
KAXN 051140Z 0512/0612 14007KT P6SM VCSH SCT080 BKN250
      TEMPO 0512/0514 5SM BR
     FM051700 18014G22KT P6SM SCT060 BKN250
     FM060000 17008KT P6SM VCSH BKN045 OVC090
      TEMPO 0600/0603 VRB30G45KT 3/4SM +TSRA OVC015CB
     FM060400 14008KT 4SM SHRA BR VCTS BKN025CB OVC050
     FM060800 05010KT 2SM SHRA BR BKN006 OVC012=



000
FTUS43 KMPX 051140
TAFSTC
TAF
KSTC 051140Z 0512/0612 16007KT P6SM SCT080 BKN250
      TEMPO 0512/0514 4SM BR
     FM051700 18013G21KT P6SM VCSH SCT060 BKN250
     FM060000 16009KT P6SM VCSH SCT045 BKN100
      TEMPO 0602/0605 VRB25G40KT 1 1/2SM TSRA OVC025CB
     FM060600 14008KT 5SM SHRA BR VCTS BKN025CB OVC050
     FM060900 14007KT 3SM SHRA BR SCT008 OVC015=



000
FTUS43 KMPX 051140
TAFRWF
TAF
KRWF 051140Z 0512/0612 16009KT P6SM VCSH SCT100 OVC250
     FM051600 17017G26KT P6SM FEW060 SCT100 BKN250
     FM060100 15014KT P6SM VCSH SCT045 BKN100
     FM060400 15010KT 5SM -SHRA OVC045
      TEMPO 0604/0607 VRB30G45KT 1SM +TSRA OVC020CB
     FM060800 16014G21KT 4SM SHRA BR VCTS BKN020CB OVC060=



000
FTUS43 KMPX 051140
TAFMSP
TAF
KMSP 051140Z 0512/0618 16007KT P6SM SCT250
     FM051600 17012G18KT P6SM BKN250
     FM052000 17015G23KT P6SM VCSH SCT050 BKN150
     FM060100 16012KT P6SM BKN050 OVC120
     FM060600 15012KT 5SM -SHRA OVC045
      TEMPO 0606/0610 2SM TSRA BKN020CB
     FM061500 29011KT 6SM -SHRA SCT020 OVC035=



000
FTUS43 KMPX 051140
TAFEAU
TAF
KEAU 051140Z 0512/0612 18007KT P6SM FEW250
     FM051700 19013G21KT P6SM SCT250
     FM060100 17009KT P6SM SCT050 BKN150
     FM060700 17008KT 6SM -SHRA BKN050 OVC120 PROB30 0608/0612 4SM
      TSRA OVC040CB=



000
FTUS43 KMPX 051140
TAFEAU
TAF
KEAU 051140Z 0512/0612 18007KT P6SM FEW250
     FM051700 19013G21KT P6SM SCT250
     FM060100 17009KT P6SM SCT050 BKN150
     FM060700 17008KT 6SM -SHRA BKN050 OVC120 PROB30 0608/0612 4SM
      TSRA OVC040CB=



000
FTUS43 KMPX 051140
TAFAXN
TAF
KAXN 051140Z 0512/0612 14007KT P6SM VCSH SCT080 BKN250
      TEMPO 0512/0514 5SM BR
     FM051700 18014G22KT P6SM SCT060 BKN250
     FM060000 17008KT P6SM VCSH BKN045 OVC090
      TEMPO 0600/0603 VRB30G45KT 3/4SM +TSRA OVC015CB
     FM060400 14008KT 4SM SHRA BR VCTS BKN025CB OVC050
     FM060800 05010KT 2SM SHRA BR BKN006 OVC012=



000
FTUS43 KMPX 051140
TAFRWF
TAF
KRWF 051140Z 0512/0612 16009KT P6SM VCSH SCT100 OVC250
     FM051600 17017G26KT P6SM FEW060 SCT100 BKN250
     FM060100 15014KT P6SM VCSH SCT045 BKN100
     FM060400 15010KT 5SM -SHRA OVC045
      TEMPO 0604/0607 VRB30G45KT 1SM +TSRA OVC020CB
     FM060800 16014G21KT 4SM SHRA BR VCTS BKN020CB OVC060=



000
FTUS43 KMPX 050850 AAA
TAFEAU
TAF AMD
KEAU 050850Z 0509/0606 18006KT P6SM SKC
     FM051400 17009KT P6SM FEW250
     FM051600 18012G19KT P6SM SCT250=



000
FTUS43 KMPX 050850 AAA
TAFEAU
TAF AMD
KEAU 050850Z 0509/0606 18006KT P6SM SKC
     FM051400 17009KT P6SM FEW250
     FM051600 18012G19KT P6SM SCT250=



000
FTUS43 KMPX 050849 AAA
TAFMSP
TAF AMD
KMSP 050849Z 0509/0612 17007KT P6SM SKC
     FM051400 18011KT P6SM FEW250
     FM051700 18014G23KT P6SM SCT050 BKN250 PROB30 0521/0601 5SM
      TSRA OVC040CB
     FM060600 18012G18KT 6SM -TSRA BKN050CB BKN150
     FM060900 15012KT 3SM TSRA BKN020CB=



000
FTUS43 KMPX 050520
TAFMSP
TAF
KMSP 050520Z 0506/0612 18006KT 6SM HZ FEW250
      TEMPO 0509/0513 3SM HZ BR
     FM051400 18011KT P6SM FEW250
     FM051700 18014G23KT P6SM SCT250
     FM060600 18012G18KT 6SM -TSRA SCT050CB BKN150
     FM060900 VRB15G25KT 3SM TSRA BKN020CB=



000
FTUS43 KMPX 050520
TAFSTC
TAF
KSTC 050520Z 0506/0606 18007KT 6SM HZ FEW040
     FM051300 18010KT P6SM FEW250
     FM051600 18014G21KT P6SM SCT250
     FM060000 17012G21KT 6SM -TSRA SCT050CB BKN150
     FM060300 VRB15G25KT 2SM TSRA BKN020CB=



000
FTUS43 KMPX 050520
TAFAXN
TAF
KAXN 050520Z 0506/0606 18010KT P6SM SKC
     FM051200 18011KT P6SM SCT250
      TEMPO 0512/0516 6SM -TSRA BKN050CB
     FM051600 18015G23KT P6SM SCT250
     FM052200 17012G23KT 6SM -TSRA SCT050CB BKN150
     FM060000 VRB15G25KT 2SM TSRA BKN020CB
     FM060300 VRB20G30KT 1SM +TSRA BKN010CB=



000
FTUS43 KMPX 050520
TAFRWF
TAF
KRWF 050520Z 0506/0606 17007KT 6SM HZ SKC
     FM051200 18012KT P6SM FEW250
      TEMPO 0512/0516 6SM -TSRA BKN050CB
     FM051600 18014G23KT P6SM SCT250
     FM060300 17012G21KT 5SM -TSRA SCT050CB BKN150=



000
FTUS43 KMPX 050520
TAFEAU
TAF
KEAU 050520Z 0506/0606 19006KT 5SM HZ SCT050 SCT250
     FM050800 19004KT 2SM BR SCT250
     FM051400 17009KT P6SM FEW250
     FM051600 18012G19KT P6SM SCT250=



000
FTUS43 KMPX 050520
TAFSTC
TAF
KSTC 050520Z 0506/0606 18007KT 6SM HZ FEW040
     FM051300 18010KT P6SM FEW250
     FM051600 18014G21KT P6SM SCT250
     FM060000 17012G21KT 6SM -TSRA SCT050CB BKN150
     FM060300 VRB15G25KT 2SM TSRA BKN020CB=



000
FTUS43 KMPX 050520
TAFEAU
TAF
KEAU 050520Z 0506/0606 19006KT 5SM HZ SCT050 SCT250
     FM050800 19004KT 2SM BR SCT250
     FM051400 17009KT P6SM FEW250
     FM051600 18012G19KT P6SM SCT250=



000
FTUS43 KMPX 050520
TAFAXN
TAF
KAXN 050520Z 0506/0606 18010KT P6SM SKC
     FM051200 18011KT P6SM SCT250
      TEMPO 0512/0516 6SM -TSRA BKN050CB
     FM051600 18015G23KT P6SM SCT250
     FM052200 17012G23KT 6SM -TSRA SCT050CB BKN150
     FM060000 VRB15G25KT 2SM TSRA BKN020CB
     FM060300 VRB20G30KT 1SM +TSRA BKN010CB=



000
FTUS43 KMPX 050520
TAFMSP
TAF
KMSP 050520Z 0506/0612 18006KT 6SM HZ FEW250
      TEMPO 0509/0513 3SM HZ BR
     FM051400 18011KT P6SM FEW250
     FM051700 18014G23KT P6SM SCT250
     FM060600 18012G18KT 6SM -TSRA SCT050CB BKN150
     FM060900 VRB15G25KT 3SM TSRA BKN020CB=



000
FTUS43 KMPX 050520
TAFRWF
TAF
KRWF 050520Z 0506/0606 17007KT 6SM HZ SKC
     FM051200 18012KT P6SM FEW250
      TEMPO 0512/0516 6SM -TSRA BKN050CB
     FM051600 18014G23KT P6SM SCT250
     FM060300 17012G21KT 5SM -TSRA SCT050CB BKN150=



000
FTUS43 KMPX 050254 CCA
TAFMSP
TAF COR
KMSP 050254Z 0503/0606 18007KT 6SM HZ SKC
     FM050600 18006KT 6SM HZ FEW250
     FM051300 18011KT P6SM FEW250
     FM051600 18014G22KT P6SM FEW250
     FM060500 18014G20KT P6SM VCSH SCT050 BKN150=



000
FTUS43 KMPX 050232 AAA
TAFMSP
TAF AMD
KMSP 050232Z 0503/0606 18007KT 5SM HZ SKC
     FM050600 18006KT 6SM HZ FEW250
     FM051300 18011KT P6SM FEW250
     FM051600 18014G22KT P6SM FEW250
     FM060500 18014G20KT P6SM VCSH SCT050 BKN150=



000
FTUS43 KMPX 050232 AAA
TAFMSP
TAF AMD
KMSP 050232Z 0503/0606 18007KT 5SM HZ SKC
     FM050600 18006KT 6SM HZ FEW250
     FM051300 18011KT P6SM FEW250
     FM051600 18014G22KT P6SM FEW250
     FM060500 18014G20KT P6SM VCSH SCT050 BKN150=



000
FTUS43 KMPX 042320
TAFAXN
TAF
KAXN 042320Z 0500/0524 18010KT 6SM HZ SKC
     FM051300 18011KT P6SM FEW250
     FM051600 18015G22KT P6SM SCT250=



000
FTUS43 KMPX 042320
TAFRWF
TAF
KRWF 042320Z 0500/0524 17007KT 6SM HZ SKC
      TEMPO 0500/0501 5SM HZ
     FM051500 18014G21KT P6SM FEW250=



000
FTUS43 KMPX 042320
TAFMSP
TAF
KMSP 042320Z 0500/0606 19005KT 4SM HZ SKC
      TEMPO 0500/0503 6SM HZ
     FM050400 18006KT 6SM HZ FEW250
     FM051300 18011KT P6SM FEW250
     FM051600 18014G22KT P6SM FEW250
     FM060500 18014G20KT P6SM VCSH SCT050 BKN150=



000
FTUS43 KMPX 042320
TAFSTC
TAF
KSTC 042320Z 0500/0524 18007KT 6SM HZ FEW040
      TEMPO 0500/0501 5SM HZ
     FM051300 18010KT P6SM FEW250
     FM051600 18014G21KT P6SM SCT250=



000
FTUS43 KMPX 042320
TAFMSP
TAF
KMSP 042320Z 0500/0606 19005KT 4SM HZ SKC
      TEMPO 0500/0503 6SM HZ
     FM050400 18006KT 6SM HZ FEW250
     FM051300 18011KT P6SM FEW250
     FM051600 18014G22KT P6SM FEW250
     FM060500 18014G20KT P6SM VCSH SCT050 BKN150=



000
FTUS43 KMPX 042320
TAFSTC
TAF
KSTC 042320Z 0500/0524 18007KT 6SM HZ FEW040
      TEMPO 0500/0501 5SM HZ
     FM051300 18010KT P6SM FEW250
     FM051600 18014G21KT P6SM SCT250=



000
FTUS43 KMPX 042320
TAFEAU
TAF
KEAU 042320Z 0500/0524 19006KT 6SM HZ SCT050 SCT250
      TEMPO 0500/0504 5SM HZ
     FM051400 17009KT P6SM FEW250
     FM051600 18014G21KT P6SM SCT250=



000
FTUS43 KMPX 042320
TAFEAU
TAF
KEAU 042320Z 0500/0524 19006KT 6SM HZ SCT050 SCT250
      TEMPO 0500/0504 5SM HZ
     FM051400 17009KT P6SM FEW250
     FM051600 18014G21KT P6SM SCT250=



000
FTUS43 KMPX 042320
TAFAXN
TAF
KAXN 042320Z 0500/0524 18010KT 6SM HZ SKC
     FM051300 18011KT P6SM FEW250
     FM051600 18015G22KT P6SM SCT250=



000
FTUS43 KMPX 042320
TAFRWF
TAF
KRWF 042320Z 0500/0524 17007KT 6SM HZ SKC
      TEMPO 0500/0501 5SM HZ
     FM051500 18014G21KT P6SM FEW250=



000
FTUS43 KMPX 042239 AAB
TAFMSP
TAF AMD
KMSP 042239Z 0423/0524 18005KT 5SM HZ FEW050 BKN300
      TEMPO 0500/0502 6SM HZ
     FM050200 18006KT 6SM HZ SCT250
     FM051000 17005KT 6SM BR FEW250
     FM051300 18011KT P6SM FEW250
     FM051800 18013G23KT P6SM SCT050 SCT250=



000
FTUS43 KMPX 042103 AAA
TAFSTC
TAF AMD
KSTC 042103Z 0421/0518 16007KT 5SM FU SCT040
      TEMPO 0422/0501 6SM HZ
     FM050100 16005KT P6SM SCT250
     FM051300 18010KT P6SM FEW100 SCT250=



000
FTUS43 KMPX 042103 AAA
TAFAXN
TAF AMD
KAXN 042103Z 0421/0518 18010KT 6SM HZ SCT050
     FM050000 17009KT P6SM FEW250
     FM051300 18011KT P6SM SCT100 SCT250=



000
FTUS43 KMPX 042101 AAA
TAFEAU
TAF AMD
KEAU 042101Z 0421/0518 21006KT 6SM HZ SCT050 SCT250
      TEMPO 0421/0424 5SM HZ
     FM050300 17006KT P6SM SKC
     FM051400 18010KT P6SM FEW040 SCT250=



000
FTUS43 KMPX 042053 AAA
TAFMSP
TAF AMD
KMSP 042053Z 0421/0524 18005KT 5SM HZ FEW050 BKN300
      TEMPO 0421/0423 6SM HZ
     FM042300 18006KT 6SM HZ SCT250
     FM051000 17005KT 6SM BR FEW250
     FM051300 18011KT P6SM FEW250
     FM051800 18013G23KT P6SM SCT050 SCT250=



000
FTUS43 KMPX 041740
TAFRWF
TAF
KRWF 041740Z 0418/0518 21006KT P6SM SCT050 SCT250
     FM042000 19011KT P6SM FEW050 SCT250
     FM050100 17007KT P6SM SCT250
     FM051500 18014G21KT P6SM FEW100 SCT250=



000
FTUS43 KMPX 041740
TAFAXN
TAF
KAXN 041740Z 0418/0518 17007KT 4SM FU SCT040 SCT250
     FM042000 18010KT P6SM SCT050 SCT250
     FM050000 17009KT P6SM FEW250
     FM051300 18011KT P6SM SCT100 SCT250=



000
FTUS43 KMPX 041740
TAFMSP
TAF
KMSP 041740Z 0418/0524 17005KT 5SM HZ FEW050 SCT250
     FM042100 19007KT P6SM FEW050 SCT250
     FM050000 18006KT P6SM SCT250
     FM051000 17005KT 6SM BR FEW250
     FM051300 18011KT P6SM FEW250
     FM051800 18013G23KT P6SM SCT050 SCT250=



000
FTUS43 KMPX 041740
TAFSTC
TAF
KSTC 041740Z 0418/0518 16007KT 4SM FU SCT050 SCT250
     FM042100 18009KT P6SM SCT050 SCT250
     FM050100 16005KT P6SM SCT250
     FM051300 18010KT P6SM FEW100 SCT250=



000
FTUS43 KMPX 041740
TAFEAU
TAF
KEAU 041740Z 0418/0518 21006KT P6SM SCT050 SCT250
     FM050300 17006KT P6SM SKC
     FM051400 18010KT P6SM FEW040 SCT250=



    US Dept of Commerce
    National Oceanic and Atmospheric Administration
    National Weather Service
    1325 East West Highway
    Silver Spring, MD 20910
    Page Author: NWS Internet Services Team
Disclaimer
Information Quality
Credits
Glossary
Privacy Policy
Freedom of Information Act (FOIA)
About Us
Career Opportunities